Time;durP1;ratioP1;P1;durP2;ratioP2;P2;SDS_P1;SDS_P2;PMS_P1;PMS_P2;Temp;Humidity;BMP_temperature;BMP_pressure;BME280_temperature;BME280_humidity;BME280_pressure;Samples;Min_cycle;Max_cycle;Signal;HPM_P1;HPM_P2
2021/12/27 00:01:49;;;;;;;26.77;16.13;;;-2.10;99.90;-3.20;100187;;;;571174;246;24062;-76
2021/12/27 00:04:17;;;;;;;22.92;12.45;;;-2.10;99.90;-3.20;100178;;;;565758;244;36363;-75
2021/12/27 00:06:45;;;;;;;15.87;7.50;;;-2.00;99.90;-3.20;100190;;;;571023;246;24086;-77
2021/12/27 00:09:13;;;;;;;24.57;10.87;;;-2.10;99.90;-3.20;100187;;;;566253;252;24121;-74
2021/12/27 00:11:41;;;;;;;23.67;13.73;;;-2.00;99.90;-3.20;100198;;;;571718;247;24118;-77
2021/12/27 00:14:09;;;;;;;18.80;12.93;;;-2.00;99.90;-3.10;100195;;;;561270;251;24142;-77
2021/12/27 00:16:37;;;;;;;21.48;10.60;;;-2.00;99.90;-3.10;100189;;;;566884;246;35322;-75
2021/12/27 00:19:05;;;;;;;10.20;3.03;;;-2.00;99.90;-3.10;100183;;;;579660;241;25088;-75
2021/12/27 00:21:33;;;;;;;23.00;13.60;;;-2.00;99.90;-3.10;100185;;;;569792;245;35386;-75
2021/12/27 00:24:02;;;;;;;20.17;8.33;;;-1.90;99.90;-3.10;100194;;;;572767;246;24133;-75
2021/12/27 00:26:31;;;;;;;17.13;6.90;;;-1.90;99.90;-3.10;100201;;;;572621;242;25136;-76
2021/12/27 00:28:59;;;;;;;15.17;6.30;;;-1.90;99.90;-3.10;100189;;;;572078;246;24130;-74
2021/12/27 00:31:27;;;;;;;17.57;10.83;;;-1.90;99.90;-3.10;100193;;;;572152;246;24101;-76
2021/12/27 00:33:55;;;;;;;18.07;11.97;;;-1.90;99.90;-3.00;100195;;;;572393;246;24121;-76
2021/12/27 00:36:24;;;;;;;18.23;12.23;;;-1.90;99.90;-3.10;100200;;;;572309;246;24109;-74
2021/12/27 00:38:52;;;;;;;18.27;12.33;;;-1.90;99.90;-3.10;100202;;;;572381;246;24095;-77
2021/12/27 00:41:20;;;;;;;20.97;13.83;;;-2.00;99.90;-3.10;100202;;;;572414;246;24143;-77
2021/12/27 00:43:48;;;;;;;18.87;13.23;;;-2.00;99.90;-3.10;100201;;;;572370;246;24062;-77
2021/12/27 00:46:17;;;;;;;22.80;13.77;;;-2.00;99.90;-3.20;100203;;;;572481;246;24097;-77
2021/12/27 00:48:46;;;;;;;21.47;14.40;;;-2.10;99.90;-3.20;100203;;;;572348;246;25148;-73
2021/12/27 00:51:14;;;;;;;20.77;11.43;;;-2.10;99.90;-3.20;100206;;;;567433;246;35181;-75
2021/12/27 00:53:42;;;;;;;9.03;3.80;;;-2.10;99.90;-3.30;100207;;;;572263;246;24103;-77
2021/12/27 00:56:10;;;;;;;19.90;13.00;;;-2.20;99.90;-3.30;100214;;;;572223;246;24033;-76
2021/12/27 00:58:39;;;;;;;21.13;14.03;;;-2.20;99.90;-3.30;100215;;;;572130;246;24065;-76
2021/12/27 01:01:08;;;;;;;16.40;11.63;;;-2.20;99.90;-3.30;100213;;;;572204;246;24087;-77
2021/12/27 01:03:36;;;;;;;18.03;12.13;;;-2.20;99.90;-3.30;100212;;;;571805;246;24055;-74
2021/12/27 01:06:03;;;;;;;16.30;11.57;;;-2.20;99.90;-3.30;100215;;;;571797;246;24105;-76
2021/12/27 01:08:33;;;;;;;15.20;9.97;;;-2.20;99.90;-3.40;100200;;;;571859;246;24179;-76
2021/12/27 01:13:58;;;;;;;16.77;11.50;;;-2.30;99.90;-3.40;100218;;;;572171;246;24046;-76
2021/12/27 01:16:17;;;;;;;14.93;8.48;;;-2.30;99.90;-3.40;100208;;;;566738;246;35224;-74
2021/12/27 01:18:45;;;;;;;10.50;3.53;;;-2.30;99.90;-3.40;100202;;;;571610;245;24140;-75
2021/12/27 01:21:13;;;;;;;13.30;8.67;;;-2.30;99.90;-3.40;100203;;;;569735;246;24068;-78
2021/12/27 01:23:41;;;;;;;18.23;11.67;;;-2.30;99.90;-3.40;100204;;;;580719;246;24084;-78
2021/12/27 01:26:09;;;;;;;14.90;9.63;;;-2.30;99.90;-3.40;100199;;;;550013;256;24089;-76
2021/12/27 01:28:37;;;;;;;14.57;8.02;;;-2.30;99.90;-3.40;100203;;;;555838;251;35120;-75
2021/12/27 01:31:05;;;;;;;12.27;6.40;;;-2.30;99.90;-3.50;100204;;;;561394;251;25109;-75
2021/12/27 01:33:33;;;;;;;14.27;7.67;;;-2.30;99.90;-3.50;100216;;;;550489;253;24092;-75
2021/12/27 01:36:04;;;;;;;12.73;8.70;;;-2.30;99.90;-3.50;100213;;;;560204;251;24102;-76
2021/12/27 01:38:29;;;;;;;11.47;7.83;;;-2.30;99.90;-3.50;100214;;;;557745;256;24117;-75
2021/12/27 01:40:57;;;;;;;12.10;7.53;;;-2.30;99.90;-3.50;100219;;;;561790;251;24122;-76
2021/12/27 01:43:25;;;;;;;13.53;8.10;;;-2.30;99.90;-3.50;100214;;;;560025;256;24165;-75
2021/12/27 01:45:59;;;;;;;12.47;8.13;;;-2.30;99.90;-3.40;100220;;;;557895;251;24109;-75
2021/12/27 01:48:24;;;;;;;14.50;10.33;;;-2.30;99.90;-3.50;100214;;;;564067;251;24109;-78
2021/12/27 01:50:52;;;;;;;13.80;9.20;;;-2.30;99.90;-3.50;100219;;;;573080;248;24102;-78
2021/12/27 01:53:21;;;;;;;12.17;8.70;;;-2.30;99.90;-3.50;100217;;;;564094;248;25138;-76
2021/12/27 01:55:49;;;;;;;12.03;7.83;;;-2.30;99.90;-3.50;100211;;;;583969;244;24060;-77
2021/12/27 01:58:21;;;;;;;13.03;8.73;;;-2.40;99.90;-3.50;100205;;;;574914;244;24141;-76
2021/12/27 02:00:47;;;;;;;12.10;8.40;;;-2.40;99.90;-3.60;100208;;;;563799;251;24149;-78
2021/12/27 02:03:21;;;;;;;12.17;9.13;;;-2.40;99.90;-3.60;100212;;;;569798;248;24076;-77
2021/12/27 02:05:46;;;;;;;11.27;7.80;;;-2.50;99.90;-3.60;100213;;;;567799;248;24106;-78
2021/12/27 02:08:17;;;;;;;12.20;8.07;;;-2.50;99.90;-3.60;100216;;;;565267;249;24104;-77
2021/12/27 02:10:42;;;;;;;10.53;7.90;;;-2.50;99.90;-3.70;100219;;;;567623;249;24095;-78
2021/12/27 02:13:13;;;;;;;10.83;7.83;;;-2.50;99.90;-3.70;100218;;;;567666;249;24150;-75
2021/12/27 02:15:38;;;;;;;10.00;7.90;;;-2.60;99.90;-3.70;100227;;;;567486;249;24113;-76
2021/12/27 02:18:09;;;;;;;8.70;6.80;;;-2.60;99.90;-3.70;100221;;;;567761;249;24188;-75
2021/12/27 02:20:34;;;;;;;7.83;5.80;;;-2.60;99.90;-3.70;100227;;;;576350;248;24118;-78
2021/12/27 02:23:02;;;;;;;9.67;6.63;;;-2.60;99.90;-3.70;100227;;;;567977;249;24098;-76
2021/12/27 02:25:29;;;;;;;7.93;6.17;;;-2.60;99.90;-3.70;100228;;;;564176;249;24078;-77
2021/12/27 02:27:57;;;;;;;9.30;6.50;;;-2.60;99.90;-3.70;100223;;;;576347;249;24157;-77
2021/12/27 02:30:25;;;;;;;9.57;6.77;;;-2.60;99.90;-3.70;100219;;;;568069;249;24165;-76
2021/12/27 02:32:53;;;;;;;10.20;7.27;;;-2.50;99.90;-3.70;100223;;;;576692;249;24132;-73
2021/12/27 02:35:22;;;;;;;11.40;6.97;;;-2.50;99.90;-3.60;100219;;;;557130;253;24153;-75
2021/12/27 02:37:53;;;;;;;9.83;7.67;;;-2.50;99.90;-3.60;100219;;;;563228;250;25149;-74
2021/12/27 02:40:22;;;;;;;11.50;7.03;;;-2.40;99.90;-3.60;100209;;;;565217;251;35527;-76
2021/12/27 02:43:05;;;;;;;10.83;7.00;;;-2.50;99.90;-3.60;100209;;;;565644;250;35480;-74
2021/12/27 02:45:37;;;;;;;10.23;4.63;;;-2.40;99.90;-3.60;100208;;;;569901;245;24101;-74
2021/12/27 02:48:06;;;;;;;8.47;3.63;;;-2.40;99.90;-3.60;100201;;;;564172;250;24109;-74
2021/12/27 02:50:35;;;;;;;10.27;6.10;;;-2.40;99.90;-3.60;100208;;;;574336;246;24123;-75
2021/12/27 02:53:03;;;;;;;8.83;6.20;;;-2.40;99.90;-3.60;100204;;;;573969;246;25124;-74
2021/12/27 02:55:31;;;;;;;8.90;7.47;;;-2.40;99.90;-3.60;100210;;;;574072;246;24118;-74
2021/12/27 02:57:59;;;;;;;10.57;7.47;;;-2.40;99.90;-3.60;100208;;;;574128;246;24151;-74
2021/12/27 03:00:38;;;;;;;9.60;7.07;;;-2.40;99.90;-3.60;100218;;;;573881;246;24125;-76
2021/12/27 03:03:10;;;;;;;11.23;7.30;;;-2.40;99.90;-3.60;100207;;;;573788;246;24123;-76
2021/12/27 03:05:35;;;;;;;8.50;5.63;;;-2.50;99.90;-3.60;100211;;;;573360;246;24124;-74
2021/12/27 03:08:03;;;;;;;10.50;6.93;;;-2.50;99.90;-3.70;100208;;;;573692;246;24105;-77
2021/12/27 03:10:31;;;;;;;10.60;7.37;;;-2.50;99.90;-3.70;100210;;;;573768;246;24104;-75
2021/12/27 03:12:59;;;;;;;10.83;7.97;;;-2.50;99.90;-3.70;100197;;;;573936;246;24093;-77
2021/12/27 03:15:27;;;;;;;19.30;7.30;;;-2.50;99.90;-3.70;100195;;;;573817;242;24091;-76
2021/12/27 03:17:57;;;;;;;7.10;6.30;;;-2.50;99.90;-3.70;100200;;;;582480;246;24154;-75
2021/12/27 03:20:22;;;;;;;10.17;6.70;;;-2.50;99.90;-3.70;100201;;;;578962;246;24167;-77
2021/12/27 03:22:50;;;;;;;8.27;6.87;;;-2.60;99.90;-3.80;100204;;;;573520;246;24138;-77
2021/12/27 03:25:18;;;;;;;10.70;6.97;;;-2.60;99.90;-3.80;100196;;;;579257;246;24081;-77
2021/12/27 03:27:49;;;;;;;8.97;7.03;;;-2.60;99.90;-3.80;100201;;;;573465;246;24151;-78
2021/12/27 03:30:14;;;;;;;10.87;7.03;;;-2.60;99.90;-3.80;100197;;;;573448;246;24132;-76
2021/12/27 03:32:42;;;;;;;12.43;7.10;;;-2.60;99.90;-3.80;100205;;;;573425;246;24081;-74
2021/12/27 03:35:15;;;;;;;8.70;6.70;;;-2.60;99.90;-3.80;100207;;;;573494;246;24155;-75
2021/12/27 03:37:40;;;;;;;8.83;7.17;;;-2.70;99.90;-3.90;100204;;;;572949;246;24098;-74
2021/12/27 03:40:09;;;;;;;9.43;6.63;;;-2.70;99.90;-3.90;100197;;;;578670;246;24129;-76
2021/12/27 03:42:40;;;;;;;8.77;7.30;;;-2.70;99.90;-3.90;100199;;;;573844;246;24100;-75
2021/12/27 03:45:04;;;;;;;10.80;7.13;;;-2.70;99.90;-3.90;100197;;;;570493;248;24187;-76
2021/12/27 03:47:32;;;;;;;10.33;6.70;;;-2.80;99.90;-4.00;100200;;;;563033;251;24087;-75
2021/12/27 03:50:00;;;;;;;14.20;7.47;;;-2.80;99.90;-4.00;100197;;;;567747;252;24174;-75
2021/12/27 03:52:28;;;;;;;10.23;7.43;;;-2.80;99.90;-4.00;100207;;;;578150;246;24097;-76
2021/12/27 03:54:56;;;;;;;9.70;6.50;;;-2.80;99.90;-4.10;100200;;;;570515;247;24065;-78
2021/12/27 03:57:24;;;;;;;7.27;6.30;;;-2.90;99.90;-4.10;100198;;;;570826;247;24081;-75
2021/12/27 04:02:38;;;;;;;12.07;7.10;;;-3.00;99.90;-4.20;100202;;;;570472;247;24077;-76
2021/12/27 04:05:10;;;;;;;11.27;7.67;;;-3.10;99.90;-4.20;100194;;;;572748;246;24081;-76
2021/12/27 04:07:36;;;;;;;11.10;7.70;;;-3.10;99.90;-4.30;100209;;;;588188;244;24100;-74
2021/12/27 04:10:07;;;;;;;14.13;8.23;;;-3.10;99.90;-4.30;100202;;;;579467;244;24174;-75
2021/12/27 04:12:35;;;;;;;13.73;7.73;;;-3.10;99.90;-4.40;100199;;;;570324;248;24158;-75
2021/12/27 04:15:03;;;;;;;11.27;8.33;;;-3.20;99.90;-4.40;100207;;;;560975;251;24148;-75
2021/12/27 04:17:31;;;;;;;15.23;8.73;;;-3.20;99.90;-4.50;100207;;;;549014;256;24207;-77
2021/12/27 04:19:59;;;;;;;10.97;7.60;;;-3.30;99.90;-4.50;100209;;;;551313;256;24120;-75
2021/12/27 04:22:30;;;;;;;14.37;7.77;;;-3.30;99.90;-4.60;100202;;;;561213;251;24131;-74
2021/12/27 04:24:55;;;;;;;9.83;7.40;;;-3.40;99.90;-4.60;100221;;;;560730;251;24178;-74
2021/12/27 04:27:23;;;;;;;11.17;7.80;;;-3.40;99.90;-4.60;100217;;;;560956;251;24187;-74
2021/12/27 04:29:51;;;;;;;12.33;8.07;;;-3.60;99.90;-4.70;100215;;;;561070;251;24145;-74
2021/12/27 04:32:24;;;;;;;11.97;7.43;;;-3.60;99.90;-4.80;100212;;;;560886;251;24163;-74
2021/12/27 04:34:49;;;;;;;11.27;7.50;;;-3.70;99.90;-4.90;100215;;;;560921;251;24134;-75
2021/12/27 04:37:17;;;;;;;11.80;7.93;;;-3.70;99.90;-5.00;100214;;;;561207;251;24143;-77
2021/12/27 04:39:44;;;;;;;10.70;7.67;;;-3.80;99.90;-5.10;100213;;;;562071;251;24133;-74
2021/12/27 04:42:13;;;;;;;13.50;7.57;;;-3.90;99.90;-5.10;100215;;;;561088;251;24114;-74
2021/12/27 04:44:42;;;;;;;14.17;8.70;;;-4.00;99.90;-5.20;100215;;;;565763;246;24087;-74
2021/12/27 04:47:13;;;;;;;13.73;8.17;;;-4.10;99.90;-5.30;100210;;;;571848;246;24085;-76
2021/12/27 04:49:38;;;;;;;11.87;8.00;;;-4.10;99.90;-5.40;100210;;;;571607;246;24101;-75
2021/12/27 04:52:06;;;;;;;17.27;9.53;;;-4.20;99.90;-5.50;100210;;;;571829;246;24122;-75
2021/12/27 04:54:33;;;;;;;21.95;12.35;;;-4.30;99.90;-5.50;100211;;;;568890;246;35364;-76
2021/12/27 04:57:02;;;;;;;21.20;12.87;;;-4.40;99.90;-5.60;100212;;;;582674;246;25133;-78
2021/12/27 04:59:30;;;;;;;29.07;14.93;;;-4.40;99.90;-5.60;100213;;;;573876;246;24072;-77
2021/12/27 05:01:58;;;;;;;47.37;15.10;;;-4.50;99.90;-5.70;100210;;;;573934;246;24134;-77
2021/12/27 05:04:27;;;;;;;29.73;14.80;;;-4.60;99.90;-5.80;100214;;;;582708;246;24116;-74
2021/12/27 05:06:55;;;;;;;22.90;14.00;;;-4.60;99.90;-5.90;100208;;;;583781;244;25148;-74
2021/12/27 05:09:23;;;;;;;25.00;15.23;;;-4.70;99.90;-6.10;100209;;;;583605;245;24109;-77
2021/12/27 05:11:51;;;;;;;24.13;15.67;;;-5.00;99.90;-6.20;100208;;;;573533;246;24171;-76
2021/12/27 05:14:19;;;;;;;22.97;14.23;;;-5.00;99.90;-6.40;100202;;;;583501;246;27353;-77
2021/12/27 05:16:48;;;;;;;19.47;13.23;;;-5.10;99.90;-6.50;100211;;;;574372;246;24140;-74
2021/12/27 05:19:15;;;;;;;17.67;11.60;;;-5.30;99.90;-6.70;100206;;;;583125;244;24122;-75
2021/12/27 05:21:43;;;;;;;15.43;10.47;;;-5.40;99.90;-6.80;100218;;;;574345;246;24145;-77
2021/12/27 05:24:12;;;;;;;13.17;9.73;;;-5.60;99.90;-7.00;100198;;;;583118;246;25133;-75
2021/12/27 05:26:39;;;;;;;17.67;11.17;;;-5.70;99.90;-7.10;100201;;;;572060;246;24134;-76
2021/12/27 05:29:07;;;;;;;20.13;12.50;;;-5.80;99.90;-7.20;100205;;;;582962;242;24149;-75
2021/12/27 05:31:35;;;;;;;18.83;12.40;;;-5.90;99.90;-7.20;100204;;;;574065;246;24073;-75
2021/12/27 05:34:02;;;;;;;13.47;9.57;;;-6.00;99.90;-7.30;100210;;;;574195;246;24120;-74
2021/12/27 05:36:30;;;;;;;10.60;8.37;;;-6.10;99.90;-7.30;100213;;;;574128;246;24077;-73
2021/12/27 05:38:58;;;;;;;13.33;9.40;;;-6.20;99.90;-7.40;100213;;;;572127;246;24085;-74
2021/12/27 05:41:26;;;;;;;13.20;9.57;;;-6.20;99.90;-7.40;100209;;;;572085;246;24124;-75
2021/12/27 05:43:54;;;;;;;13.07;8.30;;;-6.20;99.90;-7.50;100210;;;;571395;246;24129;-74
2021/12/27 05:46:22;;;;;;;12.50;8.17;;;-6.20;99.90;-7.50;100204;;;;570113;246;24121;-76
2021/12/27 05:48:50;;;;;;;9.13;6.17;;;-6.30;99.90;-7.50;100201;;;;570814;247;24123;-75
2021/12/27 05:51:18;;;;;;;10.63;8.00;;;-6.30;99.90;-7.50;100205;;;;574327;246;24049;-75
2021/12/27 05:53:46;;;;;;;7.90;6.80;;;-6.30;99.90;-7.50;100198;;;;564529;248;24104;-74
2021/12/27 05:56:14;;;;;;;9.00;6.20;;;-6.30;99.90;-7.40;100205;;;;567476;249;24129;-75
2021/12/27 05:58:42;;;;;;;9.03;5.80;;;-6.20;99.90;-7.40;100193;;;;567357;249;24122;-76
2021/12/27 06:01:11;;;;;;;6.77;5.83;;;-6.20;99.90;-7.40;100202;;;;567248;249;24115;-76
2021/12/27 06:03:39;;;;;;;5.80;5.03;;;-6.20;99.90;-7.30;100194;;;;567351;249;24082;-74
2021/12/27 06:06:07;;;;;;;6.37;5.47;;;-6.10;99.90;-7.30;100195;;;;567290;249;24114;-75
2021/12/27 06:08:35;;;;;;;5.60;4.93;;;-6.10;99.90;-7.30;100200;;;;567259;249;24100;-74
2021/12/27 06:11:03;;;;;;;6.13;5.30;;;-6.10;99.90;-7.20;100199;;;;567261;249;24128;-75
2021/12/27 06:13:31;;;;;;;7.97;5.57;;;-6.00;99.90;-7.20;100193;;;;567198;249;24153;-75
2021/12/27 06:15:59;;;;;;;6.17;5.50;;;-6.00;99.90;-7.20;100196;;;;567360;249;24105;-77
2021/12/27 06:18:31;;;;;;;6.03;5.43;;;-5.90;99.90;-7.20;100202;;;;568313;248;24145;-74
2021/12/27 06:20:55;;;;;;;6.37;5.40;;;-5.90;99.90;-7.10;100201;;;;567998;248;24098;-74
2021/12/27 06:23:23;;;;;;;6.43;5.30;;;-5.90;99.90;-7.10;100220;;;;568093;248;24115;-76
2021/12/27 06:25:51;;;;;;;6.37;5.37;;;-5.90;99.90;-7.10;100217;;;;568350;248;24119;-76
2021/12/27 06:28:19;;;;;;;8.37;6.90;;;-5.80;99.90;-7.10;100210;;;;567814;248;24087;-76
2021/12/27 06:30:47;;;;;;;7.87;6.43;;;-5.80;99.90;-7.10;100208;;;;567689;248;24152;-76
2021/12/27 06:33:15;;;;;;;9.47;6.90;;;-5.80;99.90;-7.00;100222;;;;570334;247;24101;-75
2021/12/27 06:35:43;;;;;;;11.17;6.60;;;-5.70;99.90;-7.00;100219;;;;568905;249;24179;-75
2021/12/27 06:38:11;;;;;;;6.93;5.83;;;-5.70;99.90;-7.00;100219;;;;569149;246;24156;-76
2021/12/27 06:40:38;;;;;;;11.87;7.37;;;-5.70;99.90;-6.90;100219;;;;572919;246;24116;-74
2021/12/27 06:43:06;;;;;;;11.30;8.30;;;-5.70;99.90;-6.90;100229;;;;574045;246;24124;-78
2021/12/27 06:45:34;;;;;;;13.20;8.90;;;-5.60;99.90;-6.90;100230;;;;574072;246;24090;-76
2021/12/27 06:48:02;;;;;;;11.87;8.30;;;-5.60;99.90;-6.90;100236;;;;573147;247;24124;-78
2021/12/27 06:50:30;;;;;;;12.57;9.43;;;-5.60;99.90;-6.90;100220;;;;569801;249;24098;-78
2021/12/27 06:52:58;;;;;;;9.97;7.63;;;-5.60;99.90;-6.90;100239;;;;579029;246;24120;-75
2021/12/27 06:55:26;;;;;;;15.77;10.00;;;-5.60;99.90;-6.80;100234;;;;560029;256;24166;-76
2021/12/27 06:57:54;;;;;;;13.77;9.17;;;-5.60;99.90;-6.90;100235;;;;564412;251;24171;-74
2021/12/27 07:00:22;;;;;;;13.30;9.07;;;-5.60;99.90;-6.90;100221;;;;551070;254;24118;-75
2021/12/27 07:02:50;;;;;;;10.13;7.97;;;-5.60;99.90;-6.90;100226;;;;560973;251;24104;-77
2021/12/27 07:05:18;;;;;;;12.43;8.77;;;-5.60;99.90;-6.90;100218;;;;560937;251;24110;-75
2021/12/27 07:07:46;;;;;;;14.13;8.87;;;-5.60;99.90;-7.00;100224;;;;550911;252;24133;-75
2021/12/27 07:10:13;;;;;;;10.47;7.87;;;-5.70;99.90;-7.00;100222;;;;561924;251;24131;-76
2021/12/27 07:12:44;;;;;;;12.93;8.93;;;-5.70;99.90;-7.00;100219;;;;563931;250;24151;-78
2021/12/27 07:15:09;;;;;;;12.63;9.13;;;-5.80;99.90;-7.10;100218;;;;550443;254;24149;-76
2021/12/27 07:17:37;;;;;;;8.77;7.50;;;-5.80;99.90;-7.20;100221;;;;561792;251;24153;-75
2021/12/27 07:20:05;;;;;;;11.80;8.90;;;-5.90;99.90;-7.30;100225;;;;560726;251;24127;-76
2021/12/27 07:22:33;;;;;;;9.93;7.33;;;-6.00;99.90;-7.40;100226;;;;563838;253;24126;-76
2021/12/27 07:25:01;;;;;;;14.00;7.77;;;-6.10;99.90;-7.50;100220;;;;560568;251;24192;-77
2021/12/27 07:27:29;;;;;;;12.70;8.73;;;-6.20;99.90;-7.60;100231;;;;560664;251;24207;-74
2021/12/27 07:29:57;;;;;;;10.87;8.37;;;-6.30;99.90;-7.70;100223;;;;551504;253;24140;-75
2021/12/27 07:32:25;;;;;;;14.10;10.20;;;-6.40;99.90;-7.70;100226;;;;561661;251;24174;-76
2021/12/27 07:34:53;;;;;;;15.63;10.43;;;-6.50;99.90;-7.80;100234;;;;571605;246;24156;-73
2021/12/27 07:37:24;;;;;;;17.13;11.07;;;-6.50;99.90;-7.80;100235;;;;562921;248;24101;-75
2021/12/27 07:39:49;;;;;;;16.37;11.13;;;-6.60;99.90;-7.80;100237;;;;568569;245;24153;-75
2021/12/27 07:42:16;;;;;;;15.43;10.80;;;-6.60;99.90;-7.90;100226;;;;568620;243;24117;-74
2021/12/27 07:44:47;;;;;;;16.00;11.43;;;-6.60;99.90;-8.00;100233;;;;569897;247;24082;-74
2021/12/27 07:47:12;;;;;;;13.63;10.23;;;-6.70;99.90;-8.00;100227;;;;570079;248;24110;-75
2021/12/27 07:49:40;;;;;;;13.17;9.20;;;-6.70;99.90;-8.00;100236;;;;568860;243;24089;-74
2021/12/27 07:52:11;;;;;;;11.97;8.70;;;-6.80;99.90;-8.10;100250;;;;566524;248;24089;-76
2021/12/27 07:54:36;;;;;;;11.60;8.50;;;-6.80;99.90;-8.10;100237;;;;576013;246;24116;-78
2021/12/27 07:57:04;;;;;;;12.27;8.40;;;-6.80;99.90;-8.10;100240;;;;565837;251;24167;-77
2021/12/27 07:59:32;;;;;;;15.40;8.30;;;-6.80;99.90;-8.10;100234;;;;570056;248;24146;-76
2021/12/27 08:02:00;;;;;;;13.63;9.60;;;-6.90;99.90;-8.10;100243;;;;577435;248;24090;-79
2021/12/27 08:04:28;;;;;;;15.97;10.03;;;-6.90;99.90;-8.10;100252;;;;577486;247;24096;-76
2021/12/27 08:06:56;;;;;;;15.47;11.10;;;-6.90;99.90;-8.10;100249;;;;561650;251;24162;-79
2021/12/27 08:09:26;;;;;;;10.60;7.90;;;-6.90;99.90;-8.10;100253;;;;573518;246;24076;-76
2021/12/27 08:11:54;;;;;;;12.07;8.20;;;-6.90;99.90;-8.10;100251;;;;571743;246;24157;-75
2021/12/27 08:14:22;;;;;;;16.20;10.50;;;-6.90;99.90;-8.10;100260;;;;580582;246;24068;-76
2021/12/27 08:16:50;;;;;;;13.17;9.37;;;-6.90;99.90;-8.10;100254;;;;583089;241;24078;-75
2021/12/27 08:19:18;;;;;;;11.47;9.33;;;-6.90;99.90;-8.10;100257;;;;584139;241;24085;-74
2021/12/27 08:21:46;;;;;;;14.30;9.70;;;-6.90;99.90;-8.10;100245;;;;593299;241;25237;-75
2021/12/27 08:24:14;;;;;;;14.50;9.77;;;-6.90;99.90;-8.10;100249;;;;593113;241;24079;-77
2021/12/27 08:26:42;;;;;;;20.03;12.17;;;-6.90;99.90;-8.10;100257;;;;593207;241;24062;-80
2021/12/27 08:29:09;;;;;;;11.67;9.33;;;-6.90;99.90;-8.10;100262;;;;593332;241;24104;-75
2021/12/27 08:31:37;;;;;;;16.23;11.20;;;-6.90;99.90;-8.10;100263;;;;584085;241;24079;-75
2021/12/27 08:34:09;;;;;;;14.70;10.43;;;-6.90;99.90;-8.10;100259;;;;581020;246;24060;-75
2021/12/27 08:36:33;;;;;;;15.83;11.13;;;-6.80;99.90;-8.10;100259;;;;571711;246;24119;-77
2021/12/27 08:39:01;;;;;;;16.80;11.33;;;-6.80;99.90;-8.10;100260;;;;571996;246;24117;-76
2021/12/27 08:41:29;;;;;;;15.87;11.00;;;-6.80;99.90;-8.10;100259;;;;572822;246;24092;-74
2021/12/27 08:44:01;;;;;;;17.57;12.43;;;-6.80;99.90;-8.10;100259;;;;573082;246;24194;-78
2021/12/27 08:46:26;;;;;;;18.90;12.37;;;-6.80;99.90;-8.00;100257;;;;572103;246;24088;-76
2021/12/27 08:48:54;;;;;;;19.67;13.03;;;-6.80;99.90;-8.00;100245;;;;572612;246;24092;-72
2021/12/27 08:51:23;;;;;;;15.27;10.13;;;-6.70;99.90;-8.00;100262;;;;567349;246;46220;-75
2021/12/27 08:53:52;;;;;;;14.75;10.15;;;-6.70;99.90;-8.00;100255;;;;567609;246;35395;-74
2021/12/27 08:56:20;;;;;;;13.75;8.95;;;-6.70;99.90;-8.00;100253;;;;573028;246;46257;-74
2021/12/27 08:58:52;;;;;;;16.63;10.83;;;-6.60;99.90;-7.90;100245;;;;572265;246;24096;-77
2021/12/27 09:01:17;;;;;;;19.67;12.93;;;-6.70;99.90;-7.90;100251;;;;571840;246;24092;-79
2021/12/27 09:03:45;;;;;;;17.03;12.37;;;-6.60;99.90;-7.90;100248;;;;572149;246;24118;-75
2021/12/27 09:06:14;;;;;;;20.63;13.00;;;-6.60;99.90;-7.80;100252;;;;572295;246;24100;-76
2021/12/27 09:08:42;;;;;;;16.90;11.03;;;-6.60;99.90;-7.80;100251;;;;572078;246;24156;-78
2021/12/27 09:11:10;;;;;;;15.80;11.67;;;-6.50;99.90;-7.80;100248;;;;571964;246;24138;-77
2021/12/27 09:13:37;;;;;;;16.70;12.73;;;-6.50;99.90;-7.80;100250;;;;572203;246;24128;-79
2021/12/27 09:16:07;;;;;;;16.27;12.23;;;-6.50;99.90;-7.80;100249;;;;572073;246;24112;-77
2021/12/27 09:18:35;;;;;;;15.77;13.07;;;-6.50;99.90;-7.80;100249;;;;572255;246;25143;-79
2021/12/27 09:21:01;;;;;;;21.13;14.93;;;-6.50;99.90;-7.70;100246;;;;572217;246;24162;-78
2021/12/27 09:23:29;;;;;;;21.60;14.30;;;-6.50;99.90;-7.70;100244;;;;572205;246;24069;-75
2021/12/27 09:25:57;;;;;;;26.03;16.00;;;-6.40;99.90;-7.60;100245;;;;572219;243;24073;-76
2021/12/27 09:28:25;;;;;;;23.03;15.80;;;-6.40;99.90;-7.60;100258;;;;572299;246;24061;-76
2021/12/27 09:30:53;;;;;;;26.70;18.80;;;-6.30;99.90;-7.50;100257;;;;572297;246;24121;-79
2021/12/27 09:33:22;;;;;;;24.97;16.07;;;-6.30;99.90;-7.50;100253;;;;572237;246;24080;-80
2021/12/27 09:35:49;;;;;;;25.50;17.37;;;-6.20;99.90;-7.50;100257;;;;567211;246;35374;-79
2021/12/27 09:38:17;;;;;;;29.10;17.47;;;-6.20;99.90;-7.40;100266;;;;573247;244;25146;-80
2021/12/27 09:40:45;;;;;;;27.87;20.63;;;-6.20;99.90;-7.40;100265;;;;565270;250;24162;-79
2021/12/27 09:43:14;;;;;;;32.03;21.13;;;-6.10;99.90;-7.40;100256;;;;571839;247;24124;-78
2021/12/27 09:45:43;;;;;;;34.03;22.40;;;-6.10;99.90;-7.30;100254;;;;571411;247;24142;-79
2021/12/27 09:48:15;;;;;;;29.90;21.63;;;-6.10;99.90;-7.30;100257;;;;571543;247;24079;-77
2021/12/27 09:50:46;;;;;;;37.07;25.37;;;-6.10;99.90;-7.30;100264;;;;571050;247;24100;-80
2021/12/27 09:53:14;;;;;;;40.37;26.77;;;-6.10;99.90;-7.20;100276;;;;572328;247;24090;-75
2021/12/27 09:55:41;;;;;;;45.40;29.87;;;-6.00;99.90;-7.20;100261;;;;572393;247;24080;-78
2021/12/27 09:58:09;;;;;;;48.63;30.27;;;-6.00;99.90;-7.20;100259;;;;572614;247;24086;-76
2021/12/27 10:00:40;;;;;;;38.13;26.90;;;-6.00;99.90;-7.20;100264;;;;572194;247;24135;-75
2021/12/27 10:03:09;;;;;;;38.40;27.00;;;-6.00;99.90;-7.20;100266;;;;571671;247;24098;-75
2021/12/27 10:05:33;;;;;;;36.50;23.73;;;-6.00;99.90;-7.20;100267;;;;571555;247;24133;-74
2021/12/27 10:08:01;;;;;;;45.77;31.03;;;-6.00;99.90;-7.20;100258;;;;571968;247;24130;-75
2021/12/27 10:10:29;;;;;;;46.57;30.80;;;-6.00;99.90;-7.10;100255;;;;571945;247;24104;-74
2021/12/27 10:12:57;;;;;;;48.30;30.97;;;-5.90;99.90;-7.10;100258;;;;571636;247;24101;-76
2021/12/27 10:15:26;;;;;;;52.23;34.40;;;-5.90;99.90;-7.10;100254;;;;571556;247;24093;-77
2021/12/27 10:17:54;;;;;;;46.90;32.07;;;-5.90;99.90;-7.10;100251;;;;577657;247;24093;-73
2021/12/27 10:20:24;;;;;;;43.43;31.97;;;-5.90;99.90;-7.10;100256;;;;572030;247;24061;-72
2021/12/27 10:22:52;;;;;;;42.53;30.43;;;-5.90;99.90;-7.10;100247;;;;580688;247;24057;-73
2021/12/27 10:25:20;;;;;;;53.03;34.30;;;-5.80;99.90;-7.00;100237;;;;572025;247;24076;-74
2021/12/27 10:27:47;;;;;;;46.53;32.20;;;-5.80;99.90;-7.00;100236;;;;571470;247;24094;-74
2021/12/27 10:30:17;;;;;;;49.27;33.87;;;-5.80;99.90;-7.00;100236;;;;571833;247;24078;-75
2021/12/27 10:32:45;;;;;;;46.53;31.23;;;-5.80;99.90;-7.00;100232;;;;571495;247;24071;-74
2021/12/27 10:35:13;;;;;;;51.93;36.67;;;-5.80;99.90;-7.00;100239;;;;569544;247;24092;-75
2021/12/27 10:37:43;;;;;;;53.47;35.40;;;-5.80;99.90;-7.00;100238;;;;566782;247;35174;-75
2021/12/27 10:40:16;;;;;;;58.47;39.03;;;-5.80;99.90;-7.00;100227;;;;571817;247;24091;-74
2021/12/27 10:42:47;;;;;;;64.47;38.40;;;-5.80;99.90;-7.00;100224;;;;571712;247;25223;-74
2021/12/27 10:45:16;;;;;;;59.63;40.73;;;-5.80;99.90;-7.00;100220;;;;571728;247;24075;-75
2021/12/27 10:47:45;;;;;;;65.77;42.60;;;-5.80;99.90;-7.00;100224;;;;571431;247;24119;-76
2021/12/27 10:50:26;;;;;;;65.97;44.13;;;-5.80;99.90;-6.90;100221;;;;571771;247;24098;-74
2021/12/27 10:53:02;;;;;;;63.10;43.70;;;-5.80;99.90;-6.90;100221;;;;571208;247;24106;-75
2021/12/27 10:55:38;;;;;;;57.47;41.73;;;-5.80;99.90;-7.00;100219;;;;571571;245;24063;-74
2021/12/27 10:58:25;;;;;;;61.40;42.13;;;-5.80;99.90;-7.00;100212;;;;570848;247;24067;-75
2021/12/27 11:00:56;;;;;;;65.20;44.63;;;-5.80;99.90;-7.00;100220;;;;570986;247;24136;-74
2021/12/27 11:03:23;;;;;;;70.97;45.13;;;-5.80;99.90;-7.00;100220;;;;568234;245;24098;-75
2021/12/27 11:05:55;;;;;;;65.37;44.93;;;-5.80;99.90;-7.00;100212;;;;572805;247;24172;-75
2021/12/27 11:08:23;;;;;;;63.50;43.90;;;-5.80;99.90;-7.00;100215;;;;571854;247;24115;-76
2021/12/27 11:10:47;;;;;;;67.93;46.47;;;-5.80;99.90;-7.00;100215;;;;572147;247;24110;-76